sensor_id;sensor_type;location;lat;lon;timestamp;P1;durP1;ratioP1;P2;durP2;ratioP2
51800;SDS011;37855;53.204;6.568;2023-05-10T00:00:38;10.30;;;6.77;;
51800;SDS011;37855;53.204;6.568;2023-05-10T00:03:04;10.27;;;7.10;;
51800;SDS011;37855;53.204;6.568;2023-05-10T00:05:30;10.70;;;7.45;;
51800;SDS011;37855;53.204;6.568;2023-05-10T00:07:57;10.10;;;7.43;;
51800;SDS011;37855;53.204;6.568;2023-05-10T00:10:23;10.50;;;7.73;;
51800;SDS011;37855;53.204;6.568;2023-05-10T00:12:49;9.70;;;7.07;;
51800;SDS011;37855;53.204;6.568;2023-05-10T00:15:14;10.40;;;7.57;;
51800;SDS011;37855;53.204;6.568;2023-05-10T00:17:40;10.45;;;7.45;;
51800;SDS011;37855;53.204;6.568;2023-05-10T00:20:07;9.63;;;7.17;;
51800;SDS011;37855;53.204;6.568;2023-05-10T00:22:33;11.05;;;8.10;;
51800;SDS011;37855;53.204;6.568;2023-05-10T00:24:58;9.82;;;7.47;;
51800;SDS011;37855;53.204;6.568;2023-05-10T00:27:24;11.00;;;6.93;;
51800;SDS011;37855;53.204;6.568;2023-05-10T00:29:50;10.20;;;6.70;;
51800;SDS011;37855;53.204;6.568;2023-05-10T00:32:15;8.93;;;6.30;;
51800;SDS011;37855;53.204;6.568;2023-05-10T00:34:41;9.13;;;6.10;;
51800;SDS011;37855;53.204;6.568;2023-05-10T00:37:07;9.23;;;6.10;;
51800;SDS011;37855;53.204;6.568;2023-05-10T00:39:32;8.43;;;6.07;;
51800;SDS011;37855;53.204;6.568;2023-05-10T00:41:58;8.30;;;6.17;;
51800;SDS011;37855;53.204;6.568;2023-05-10T00:44:25;8.07;;;6.00;;
51800;SDS011;37855;53.204;6.568;2023-05-10T00:46:50;10.30;;;6.30;;
51800;SDS011;37855;53.204;6.568;2023-05-10T00:49:20;8.85;;;6.13;;
51800;SDS011;37855;53.204;6.568;2023-05-10T00:51:46;9.57;;;6.28;;
51800;SDS011;37855;53.204;6.568;2023-05-10T00:54:12;9.00;;;6.07;;
51800;SDS011;37855;53.204;6.568;2023-05-10T00:56:40;9.95;;;6.72;;
51800;SDS011;37855;53.204;6.568;2023-05-10T00:59:06;8.20;;;6.13;;
51800;SDS011;37855;53.204;6.568;2023-05-10T01:01:35;8.27;;;5.75;;
51800;SDS011;37855;53.204;6.568;2023-05-10T01:04:01;8.00;;;5.65;;
51800;SDS011;37855;53.204;6.568;2023-05-10T01:06:28;7.97;;;5.77;;
51800;SDS011;37855;53.204;6.568;2023-05-10T01:08:54;8.10;;;5.72;;
51800;SDS011;37855;53.204;6.568;2023-05-10T01:11:20;8.32;;;5.85;;
51800;SDS011;37855;53.204;6.568;2023-05-10T01:13:51;8.18;;;5.90;;
51800;SDS011;37855;53.204;6.568;2023-05-10T01:16:20;7.65;;;5.18;;
51800;SDS011;37855;53.204;6.568;2023-05-10T01:18:46;8.33;;;5.70;;
51800;SDS011;37855;53.204;6.568;2023-05-10T01:21:16;9.18;;;6.00;;
51800;SDS011;37855;53.204;6.568;2023-05-10T01:29:47;8.70;;;5.95;;
51800;SDS011;37855;53.204;6.568;2023-05-10T01:35:19;8.38;;;5.60;;
51800;SDS011;37855;53.204;6.568;2023-05-10T01:37:59;9.02;;;6.28;;
51800;SDS011;37855;53.204;6.568;2023-05-10T01:43:04;8.77;;;5.97;;
51800;SDS011;37855;53.204;6.568;2023-05-10T01:45:57;8.07;;;5.60;;
51800;SDS011;37855;53.204;6.568;2023-05-10T01:48:40;8.50;;;5.80;;
51800;SDS011;37855;53.204;6.568;2023-05-10T01:51:16;8.60;;;6.20;;
51800;SDS011;37855;53.204;6.568;2023-05-10T01:53:48;9.70;;;6.27;;
51800;SDS011;37855;53.204;6.568;2023-05-10T01:56:15;10.10;;;6.90;;
51800;SDS011;37855;53.204;6.568;2023-05-10T01:58:43;8.82;;;6.50;;
51800;SDS011;37855;53.204;6.568;2023-05-10T02:01:12;10.20;;;6.97;;
51800;SDS011;37855;53.204;6.568;2023-05-10T02:03:39;8.52;;;6.07;;
51800;SDS011;37855;53.204;6.568;2023-05-10T02:06:06;8.67;;;6.70;;
51800;SDS011;37855;53.204;6.568;2023-05-10T02:08:34;8.90;;;6.05;;
51800;SDS011;37855;53.204;6.568;2023-05-10T02:11:01;8.70;;;6.38;;
51800;SDS011;37855;53.204;6.568;2023-05-10T02:13:28;8.60;;;6.18;;
51800;SDS011;37855;53.204;6.568;2023-05-10T02:15:57;9.50;;;6.68;;
51800;SDS011;37855;53.204;6.568;2023-05-10T02:18:24;8.27;;;5.90;;
51800;SDS011;37855;53.204;6.568;2023-05-10T02:20:52;9.13;;;6.05;;
51800;SDS011;37855;53.204;6.568;2023-05-10T02:23:20;8.90;;;6.43;;
51800;SDS011;37855;53.204;6.568;2023-05-10T02:25:47;10.13;;;6.50;;
51800;SDS011;37855;53.204;6.568;2023-05-10T02:28:13;9.18;;;6.60;;
51800;SDS011;37855;53.204;6.568;2023-05-10T02:30:40;9.67;;;6.43;;
51800;SDS011;37855;53.204;6.568;2023-05-10T02:33:06;9.93;;;6.90;;
51800;SDS011;37855;53.204;6.568;2023-05-10T02:35:33;10.40;;;7.03;;
51800;SDS011;37855;53.204;6.568;2023-05-10T02:37:59;9.45;;;7.00;;
51800;SDS011;37855;53.204;6.568;2023-05-10T02:40:26;9.48;;;6.85;;
51800;SDS011;37855;53.204;6.568;2023-05-10T02:42:54;10.33;;;6.63;;
51800;SDS011;37855;53.204;6.568;2023-05-10T02:45:21;10.18;;;6.78;;
51800;SDS011;37855;53.204;6.568;2023-05-10T02:47:51;9.68;;;6.75;;
51800;SDS011;37855;53.204;6.568;2023-05-10T02:50:17;9.70;;;6.93;;
51800;SDS011;37855;53.204;6.568;2023-05-10T02:52:47;9.15;;;6.15;;
51800;SDS011;37855;53.204;6.568;2023-05-10T02:55:21;11.70;;;7.63;;
51800;SDS011;37855;53.204;6.568;2023-05-10T02:58:00;11.43;;;7.50;;
51800;SDS011;37855;53.204;6.568;2023-05-10T03:00:27;12.00;;;8.10;;
51800;SDS011;37855;53.204;6.568;2023-05-10T03:02:53;12.23;;;8.38;;
51800;SDS011;37855;53.204;6.568;2023-05-10T03:05:19;11.60;;;7.53;;
51800;SDS011;37855;53.204;6.568;2023-05-10T03:07:45;13.30;;;8.25;;
51800;SDS011;37855;53.204;6.568;2023-05-10T03:10:12;12.18;;;8.27;;
51800;SDS011;37855;53.204;6.568;2023-05-10T03:18:50;11.93;;;8.27;;
51800;SDS011;37855;53.204;6.568;2023-05-10T03:21:10;12.40;;;8.50;;
51800;SDS011;37855;53.204;6.568;2023-05-10T03:26:26;13.48;;;8.15;;
51800;SDS011;37855;53.204;6.568;2023-05-10T03:28:52;14.20;;;9.57;;
51800;SDS011;37855;53.204;6.568;2023-05-10T03:31:19;12.77;;;8.37;;
51800;SDS011;37855;53.204;6.568;2023-05-10T03:33:46;13.13;;;9.30;;
51800;SDS011;37855;53.204;6.568;2023-05-10T03:36:15;13.48;;;9.30;;
51800;SDS011;37855;53.204;6.568;2023-05-10T03:38:42;13.95;;;9.07;;
51800;SDS011;37855;53.204;6.568;2023-05-10T03:41:08;14.32;;;9.57;;
51800;SDS011;37855;53.204;6.568;2023-05-10T03:43:37;16.43;;;10.30;;
51800;SDS011;37855;53.204;6.568;2023-05-10T03:46:04;16.25;;;10.75;;
51800;SDS011;37855;53.204;6.568;2023-05-10T03:48:30;17.00;;;9.80;;
51800;SDS011;37855;53.204;6.568;2023-05-10T03:50:57;17.00;;;10.43;;
51800;SDS011;37855;53.204;6.568;2023-05-10T03:53:23;17.30;;;11.60;;
51800;SDS011;37855;53.204;6.568;2023-05-10T03:55:50;16.40;;;10.40;;
51800;SDS011;37855;53.204;6.568;2023-05-10T03:58:16;18.00;;;11.43;;
51800;SDS011;37855;53.204;6.568;2023-05-10T04:00:41;19.10;;;10.87;;
51800;SDS011;37855;53.204;6.568;2023-05-10T04:03:08;18.25;;;10.80;;
51800;SDS011;37855;53.204;6.568;2023-05-10T04:05:35;18.33;;;11.02;;
51800;SDS011;37855;53.204;6.568;2023-05-10T04:08:01;20.88;;;11.68;;
51800;SDS011;37855;53.204;6.568;2023-05-10T04:10:30;20.67;;;11.70;;
51800;SDS011;37855;53.204;6.568;2023-05-10T04:12:55;18.13;;;10.73;;
51800;SDS011;37855;53.204;6.568;2023-05-10T04:15:21;18.77;;;11.02;;
51800;SDS011;37855;53.204;6.568;2023-05-10T04:17:47;15.20;;;8.90;;
51800;SDS011;37855;53.204;6.568;2023-05-10T04:20:14;16.27;;;9.32;;
51800;SDS011;37855;53.204;6.568;2023-05-10T04:22:40;15.15;;;9.43;;
51800;SDS011;37855;53.204;6.568;2023-05-10T04:25:06;14.87;;;9.30;;
51800;SDS011;37855;53.204;6.568;2023-05-10T04:27:32;13.93;;;8.93;;
51800;SDS011;37855;53.204;6.568;2023-05-10T04:29:58;14.30;;;8.98;;
51800;SDS011;37855;53.204;6.568;2023-05-10T04:32:24;12.03;;;7.80;;
51800;SDS011;37855;53.204;6.568;2023-05-10T04:34:49;11.63;;;6.75;;
51800;SDS011;37855;53.204;6.568;2023-05-10T04:37:16;9.20;;;6.10;;
51800;SDS011;37855;53.204;6.568;2023-05-10T04:39:43;8.03;;;4.67;;
51800;SDS011;37855;53.204;6.568;2023-05-10T04:42:09;8.50;;;4.55;;
51800;SDS011;37855;53.204;6.568;2023-05-10T04:44:34;7.65;;;4.50;;
51800;SDS011;37855;53.204;6.568;2023-05-10T04:47:01;6.80;;;4.53;;
51800;SDS011;37855;53.204;6.568;2023-05-10T04:49:27;7.53;;;4.72;;
51800;SDS011;37855;53.204;6.568;2023-05-10T04:51:54;6.00;;;4.05;;
51800;SDS011;37855;53.204;6.568;2023-05-10T04:54:20;6.47;;;4.20;;
51800;SDS011;37855;53.204;6.568;2023-05-10T04:56:46;6.90;;;3.97;;
51800;SDS011;37855;53.204;6.568;2023-05-10T04:59:11;8.00;;;4.07;;
51800;SDS011;37855;53.204;6.568;2023-05-10T05:01:37;7.33;;;4.37;;
51800;SDS011;37855;53.204;6.568;2023-05-10T05:04:03;7.25;;;4.30;;
51800;SDS011;37855;53.204;6.568;2023-05-10T05:06:28;6.10;;;3.87;;
51800;SDS011;37855;53.204;6.568;2023-05-10T05:08:56;7.03;;;3.88;;
51800;SDS011;37855;53.204;6.568;2023-05-10T05:11:21;7.10;;;4.30;;
51800;SDS011;37855;53.204;6.568;2023-05-10T05:13:50;6.33;;;3.90;;
51800;SDS011;37855;53.204;6.568;2023-05-10T05:16:16;6.50;;;4.30;;
51800;SDS011;37855;53.204;6.568;2023-05-10T05:18:42;6.10;;;4.17;;
51800;SDS011;37855;53.204;6.568;2023-05-10T05:21:17;6.65;;;3.92;;
51800;SDS011;37855;53.204;6.568;2023-05-10T05:23:44;6.68;;;3.90;;
51800;SDS011;37855;53.204;6.568;2023-05-10T05:26:10;7.73;;;4.17;;
51800;SDS011;37855;53.204;6.568;2023-05-10T05:28:35;6.90;;;3.95;;
51800;SDS011;37855;53.204;6.568;2023-05-10T05:31:05;7.68;;;4.20;;
51800;SDS011;37855;53.204;6.568;2023-05-10T05:33:32;7.47;;;4.28;;
51800;SDS011;37855;53.204;6.568;2023-05-10T05:36:02;6.90;;;4.27;;
51800;SDS011;37855;53.204;6.568;2023-05-10T05:38:30;7.72;;;4.30;;
51800;SDS011;37855;53.204;6.568;2023-05-10T05:40:56;7.38;;;4.30;;
51800;SDS011;37855;53.204;6.568;2023-05-10T05:43:22;7.27;;;4.60;;
51800;SDS011;37855;53.204;6.568;2023-05-10T05:45:48;7.15;;;4.70;;
51800;SDS011;37855;53.204;6.568;2023-05-10T05:48:14;7.55;;;4.70;;
51800;SDS011;37855;53.204;6.568;2023-05-10T05:50:39;9.13;;;4.17;;
51800;SDS011;37855;53.204;6.568;2023-05-10T05:53:05;7.50;;;4.72;;
51800;SDS011;37855;53.204;6.568;2023-05-10T05:55:31;9.03;;;5.30;;
51800;SDS011;37855;53.204;6.568;2023-05-10T05:57:57;6.90;;;4.43;;
51800;SDS011;37855;53.204;6.568;2023-05-10T06:00:23;8.93;;;4.40;;
51800;SDS011;37855;53.204;6.568;2023-05-10T06:02:49;7.00;;;3.93;;
51800;SDS011;37855;53.204;6.568;2023-05-10T06:05:15;6.45;;;4.30;;
51800;SDS011;37855;53.204;6.568;2023-05-10T06:07:40;8.30;;;4.33;;
51800;SDS011;37855;53.204;6.568;2023-05-10T06:10:15;7.25;;;4.40;;
51800;SDS011;37855;53.204;6.568;2023-05-10T06:12:40;7.53;;;3.83;;
51800;SDS011;37855;53.204;6.568;2023-05-10T06:15:06;5.10;;;3.40;;
51800;SDS011;37855;53.204;6.568;2023-05-10T06:17:32;5.68;;;3.15;;
51800;SDS011;37855;53.204;6.568;2023-05-10T06:20:04;4.55;;;2.70;;
51800;SDS011;37855;53.204;6.568;2023-05-10T06:22:30;3.63;;;2.05;;
51800;SDS011;37855;53.204;6.568;2023-05-10T06:24:56;4.40;;;2.20;;
51800;SDS011;37855;53.204;6.568;2023-05-10T06:27:22;3.40;;;1.90;;
51800;SDS011;37855;53.204;6.568;2023-05-10T06:29:51;3.25;;;1.73;;
51800;SDS011;37855;53.204;6.568;2023-05-10T06:32:16;3.93;;;2.10;;
51800;SDS011;37855;53.204;6.568;2023-05-10T06:34:42;4.32;;;2.65;;
51800;SDS011;37855;53.204;6.568;2023-05-10T06:37:08;5.00;;;3.20;;
51800;SDS011;37855;53.204;6.568;2023-05-10T06:39:34;9.95;;;4.70;;
51800;SDS011;37855;53.204;6.568;2023-05-10T06:42:01;8.60;;;5.25;;
51800;SDS011;37855;53.204;6.568;2023-05-10T06:44:30;10.82;;;6.38;;
51800;SDS011;37855;53.204;6.568;2023-05-10T06:47:05;9.83;;;6.80;;
51800;SDS011;37855;53.204;6.568;2023-05-10T06:49:30;10.40;;;7.07;;
51800;SDS011;37855;53.204;6.568;2023-05-10T06:51:56;8.87;;;6.07;;
51800;SDS011;37855;53.204;6.568;2023-05-10T06:54:25;9.73;;;6.88;;
51800;SDS011;37855;53.204;6.568;2023-05-10T06:56:53;9.40;;;6.60;;
51800;SDS011;37855;53.204;6.568;2023-05-10T06:59:19;9.63;;;5.97;;
51800;SDS011;37855;53.204;6.568;2023-05-10T07:01:46;10.10;;;5.97;;
51800;SDS011;37855;53.204;6.568;2023-05-10T07:04:12;8.75;;;5.60;;
51800;SDS011;37855;53.204;6.568;2023-05-10T07:06:38;8.77;;;5.47;;
51800;SDS011;37855;53.204;6.568;2023-05-10T07:09:05;7.50;;;4.97;;
51800;SDS011;37855;53.204;6.568;2023-05-10T07:11:32;8.45;;;4.88;;
51800;SDS011;37855;53.204;6.568;2023-05-10T07:13:58;8.90;;;4.70;;
51800;SDS011;37855;53.204;6.568;2023-05-10T07:16:27;7.00;;;4.57;;
51800;SDS011;37855;53.204;6.568;2023-05-10T07:18:53;6.60;;;4.30;;
51800;SDS011;37855;53.204;6.568;2023-05-10T07:21:19;5.83;;;3.50;;
51800;SDS011;37855;53.204;6.568;2023-05-10T07:23:45;6.10;;;3.65;;
51800;SDS011;37855;53.204;6.568;2023-05-10T07:26:10;6.20;;;3.90;;
51800;SDS011;37855;53.204;6.568;2023-05-10T07:28:36;6.00;;;4.00;;
51800;SDS011;37855;53.204;6.568;2023-05-10T07:31:02;6.45;;;3.65;;
51800;SDS011;37855;53.204;6.568;2023-05-10T07:33:28;6.63;;;3.60;;
51800;SDS011;37855;53.204;6.568;2023-05-10T07:35:55;5.75;;;3.67;;
51800;SDS011;37855;53.204;6.568;2023-05-10T07:38:21;5.20;;;3.50;;
51800;SDS011;37855;53.204;6.568;2023-05-10T07:40:47;5.68;;;3.40;;
51800;SDS011;37855;53.204;6.568;2023-05-10T07:43:13;5.60;;;3.07;;
51800;SDS011;37855;53.204;6.568;2023-05-10T07:45:38;4.97;;;3.00;;
51800;SDS011;37855;53.204;6.568;2023-05-10T07:48:04;3.95;;;2.47;;
51800;SDS011;37855;53.204;6.568;2023-05-10T07:50:30;5.22;;;2.80;;
51800;SDS011;37855;53.204;6.568;2023-05-10T07:52:55;5.07;;;2.50;;
51800;SDS011;37855;53.204;6.568;2023-05-10T07:55:21;4.20;;;2.60;;
51800;SDS011;37855;53.204;6.568;2023-05-10T07:57:47;4.73;;;2.50;;
51800;SDS011;37855;53.204;6.568;2023-05-10T08:00:13;4.20;;;2.70;;
51800;SDS011;37855;53.204;6.568;2023-05-10T08:02:44;5.33;;;3.10;;
51800;SDS011;37855;53.204;6.568;2023-05-10T08:05:11;4.95;;;3.05;;
51800;SDS011;37855;53.204;6.568;2023-05-10T08:07:37;6.00;;;3.60;;
51800;SDS011;37855;53.204;6.568;2023-05-10T08:10:04;8.52;;;3.90;;
51800;SDS011;37855;53.204;6.568;2023-05-10T08:12:31;5.68;;;3.60;;
51800;SDS011;37855;53.204;6.568;2023-05-10T08:14:57;6.07;;;3.77;;
51800;SDS011;37855;53.204;6.568;2023-05-10T08:17:23;6.65;;;3.53;;
51800;SDS011;37855;53.204;6.568;2023-05-10T08:19:49;6.33;;;3.53;;
51800;SDS011;37855;53.204;6.568;2023-05-10T08:22:14;6.30;;;3.00;;
51800;SDS011;37855;53.204;6.568;2023-05-10T08:24:40;6.87;;;3.37;;
51800;SDS011;37855;53.204;6.568;2023-05-10T08:27:07;6.40;;;3.50;;
51800;SDS011;37855;53.204;6.568;2023-05-10T08:29:33;5.88;;;3.53;;
51800;SDS011;37855;53.204;6.568;2023-05-10T08:31:59;6.25;;;3.35;;
51800;SDS011;37855;53.204;6.568;2023-05-10T08:34:26;6.68;;;3.47;;
51800;SDS011;37855;53.204;6.568;2023-05-10T08:36:52;5.53;;;3.57;;
51800;SDS011;37855;53.204;6.568;2023-05-10T08:39:17;7.10;;;3.85;;
51800;SDS011;37855;53.204;6.568;2023-05-10T08:41:43;6.10;;;3.60;;
51800;SDS011;37855;53.204;6.568;2023-05-10T08:44:13;5.78;;;3.90;;
51800;SDS011;37855;53.204;6.568;2023-05-10T08:46:40;7.28;;;4.55;;
51800;SDS011;37855;53.204;6.568;2023-05-10T08:49:09;5.65;;;3.50;;
51800;SDS011;37855;53.204;6.568;2023-05-10T08:51:39;5.65;;;3.83;;
51800;SDS011;37855;53.204;6.568;2023-05-10T08:54:08;6.10;;;3.27;;
51800;SDS011;37855;53.204;6.568;2023-05-10T08:56:34;5.43;;;3.40;;
51800;SDS011;37855;53.204;6.568;2023-05-10T08:59:01;6.47;;;3.58;;
51800;SDS011;37855;53.204;6.568;2023-05-10T09:01:27;5.60;;;3.58;;
51800;SDS011;37855;53.204;6.568;2023-05-10T09:03:57;5.93;;;3.40;;
51800;SDS011;37855;53.204;6.568;2023-05-10T09:06:25;7.53;;;4.47;;
51800;SDS011;37855;53.204;6.568;2023-05-10T09:08:52;7.43;;;4.15;;
51800;SDS011;37855;53.204;6.568;2023-05-10T09:11:18;7.18;;;4.00;;
51800;SDS011;37855;53.204;6.568;2023-05-10T09:13:45;6.45;;;4.15;;
51800;SDS011;37855;53.204;6.568;2023-05-10T09:16:15;8.27;;;4.50;;
51800;SDS011;37855;53.204;6.568;2023-05-10T09:18:41;6.68;;;4.03;;
51800;SDS011;37855;53.204;6.568;2023-05-10T09:21:10;9.27;;;4.32;;
51800;SDS011;37855;53.204;6.568;2023-05-10T09:23:36;8.20;;;4.47;;
51800;SDS011;37855;53.204;6.568;2023-05-10T09:26:02;7.93;;;4.22;;
51800;SDS011;37855;53.204;6.568;2023-05-10T09:29:12;6.72;;;4.30;;
51800;SDS011;37855;53.204;6.568;2023-05-10T09:31:42;7.23;;;3.83;;
51800;SDS011;37855;53.204;6.568;2023-05-10T09:34:16;7.50;;;4.63;;
51800;SDS011;37855;53.204;6.568;2023-05-10T09:36:50;7.07;;;4.18;;
51800;SDS011;37855;53.204;6.568;2023-05-10T09:39:28;7.15;;;4.30;;
51800;SDS011;37855;53.204;6.568;2023-05-10T09:41:58;10.00;;;4.35;;
51800;SDS011;37855;53.204;6.568;2023-05-10T09:44:28;7.70;;;4.37;;
51800;SDS011;37855;53.204;6.568;2023-05-10T09:46:55;8.85;;;4.97;;
51800;SDS011;37855;53.204;6.568;2023-05-10T09:49:21;8.00;;;5.30;;
51800;SDS011;37855;53.204;6.568;2023-05-10T09:51:56;8.10;;;4.80;;
51800;SDS011;37855;53.204;6.568;2023-05-10T09:54:24;7.35;;;4.45;;
51800;SDS011;37855;53.204;6.568;2023-05-10T09:56:50;7.85;;;4.38;;
51800;SDS011;37855;53.204;6.568;2023-05-10T09:59:16;7.13;;;4.07;;
51800;SDS011;37855;53.204;6.568;2023-05-10T10:01:42;6.28;;;3.75;;
51800;SDS011;37855;53.204;6.568;2023-05-10T10:04:15;6.93;;;3.90;;
51800;SDS011;37855;53.204;6.568;2023-05-10T10:06:41;6.20;;;3.77;;
51800;SDS011;37855;53.204;6.568;2023-05-10T10:09:10;8.10;;;4.00;;
51800;SDS011;37855;53.204;6.568;2023-05-10T10:11:36;7.80;;;4.28;;
51800;SDS011;37855;53.204;6.568;2023-05-10T10:14:03;8.18;;;4.32;;
51800;SDS011;37855;53.204;6.568;2023-05-10T10:16:30;8.80;;;4.80;;
51800;SDS011;37855;53.204;6.568;2023-05-10T10:18:57;7.93;;;4.40;;
51800;SDS011;37855;53.204;6.568;2023-05-10T10:21:23;8.68;;;4.60;;
51800;SDS011;37855;53.204;6.568;2023-05-10T10:23:49;8.20;;;4.22;;
51800;SDS011;37855;53.204;6.568;2023-05-10T10:26:19;7.63;;;4.30;;
51800;SDS011;37855;53.204;6.568;2023-05-10T10:28:48;6.75;;;4.18;;
51800;SDS011;37855;53.204;6.568;2023-05-10T10:34:25;7.65;;;4.55;;
51800;SDS011;37855;53.204;6.568;2023-05-10T10:36:55;6.93;;;4.20;;
51800;SDS011;37855;53.204;6.568;2023-05-10T10:39:22;7.55;;;4.57;;
51800;SDS011;37855;53.204;6.568;2023-05-10T10:41:52;7.88;;;4.70;;
51800;SDS011;37855;53.204;6.568;2023-05-10T10:44:53;8.40;;;4.80;;
51800;SDS011;37855;53.204;6.568;2023-05-10T10:49:49;6.78;;;4.45;;
51800;SDS011;37855;53.204;6.568;2023-05-10T10:52:25;9.00;;;5.00;;
51800;SDS011;37855;53.204;6.568;2023-05-10T11:00:19;10.40;;;5.53;;
51800;SDS011;37855;53.204;6.568;2023-05-10T11:03:12;8.07;;;5.28;;
51800;SDS011;37855;53.204;6.568;2023-05-10T11:05:39;9.20;;;5.60;;
51800;SDS011;37855;53.204;6.568;2023-05-10T11:11:14;11.03;;;5.93;;
51800;SDS011;37855;53.204;6.568;2023-05-10T11:13:46;10.98;;;5.75;;
51800;SDS011;37855;53.204;6.568;2023-05-10T11:16:20;8.93;;;6.03;;
51800;SDS011;37855;53.204;6.568;2023-05-10T11:19:01;7.97;;;5.13;;
51800;SDS011;37855;53.204;6.568;2023-05-10T11:21:33;10.52;;;5.53;;
51800;SDS011;37855;53.204;6.568;2023-05-10T11:24:12;9.40;;;6.20;;
51800;SDS011;37855;53.204;6.568;2023-05-10T11:26:42;10.35;;;5.90;;
51800;SDS011;37855;53.204;6.568;2023-05-10T11:29:09;9.98;;;6.03;;
51800;SDS011;37855;53.204;6.568;2023-05-10T11:31:47;11.55;;;6.43;;
51800;SDS011;37855;53.204;6.568;2023-05-10T11:34:30;9.90;;;6.13;;
51800;SDS011;37855;53.204;6.568;2023-05-10T11:36:59;10.97;;;6.30;;
51800;SDS011;37855;53.204;6.568;2023-05-10T11:39:26;11.05;;;6.72;;
51800;SDS011;37855;53.204;6.568;2023-05-10T11:41:53;13.45;;;7.32;;
51800;SDS011;37855;53.204;6.568;2023-05-10T11:44:19;12.50;;;7.32;;
51800;SDS011;37855;53.204;6.568;2023-05-10T11:46:45;9.43;;;5.97;;
51800;SDS011;37855;53.204;6.568;2023-05-10T11:49:11;12.23;;;6.55;;
51800;SDS011;37855;53.204;6.568;2023-05-10T11:51:38;12.98;;;7.10;;
51800;SDS011;37855;53.204;6.568;2023-05-10T11:54:08;12.57;;;6.73;;
51800;SDS011;37855;53.204;6.568;2023-05-10T11:56:35;12.82;;;7.05;;
51800;SDS011;37855;53.204;6.568;2023-05-10T11:59:03;11.02;;;6.45;;
51800;SDS011;37855;53.204;6.568;2023-05-10T12:01:33;11.07;;;6.65;;
51800;SDS011;37855;53.204;6.568;2023-05-10T12:03:59;12.13;;;6.45;;
51800;SDS011;37855;53.204;6.568;2023-05-10T12:06:26;13.17;;;6.43;;
51800;SDS011;37855;53.204;6.568;2023-05-10T12:08:54;11.52;;;6.55;;
51800;SDS011;37855;53.204;6.568;2023-05-10T12:11:27;11.90;;;6.30;;
51800;SDS011;37855;53.204;6.568;2023-05-10T12:13:53;10.68;;;6.40;;
51800;SDS011;37855;53.204;6.568;2023-05-10T12:16:20;12.10;;;6.65;;
51800;SDS011;37855;53.204;6.568;2023-05-10T12:18:58;12.67;;;7.10;;
51800;SDS011;37855;53.204;6.568;2023-05-10T12:21:25;12.25;;;6.70;;
51800;SDS011;37855;53.204;6.568;2023-05-10T12:23:52;12.25;;;6.75;;
51800;SDS011;37855;53.204;6.568;2023-05-10T12:26:22;11.93;;;6.88;;
51800;SDS011;37855;53.204;6.568;2023-05-10T12:28:53;14.38;;;7.05;;
51800;SDS011;37855;53.204;6.568;2023-05-10T12:31:19;15.93;;;8.00;;
51800;SDS011;37855;53.204;6.568;2023-05-10T12:33:45;14.50;;;7.10;;
51800;SDS011;37855;53.204;6.568;2023-05-10T12:36:12;13.32;;;7.00;;
51800;SDS011;37855;53.204;6.568;2023-05-10T12:38:40;13.43;;;7.47;;
51800;SDS011;37855;53.204;6.568;2023-05-10T12:41:09;12.30;;;7.25;;
51800;SDS011;37855;53.204;6.568;2023-05-10T12:43:35;15.20;;;7.82;;
51800;SDS011;37855;53.204;6.568;2023-05-10T12:46:04;15.15;;;7.75;;
51800;SDS011;37855;53.204;6.568;2023-05-10T12:48:34;13.10;;;7.70;;
51800;SDS011;37855;53.204;6.568;2023-05-10T12:51:01;14.77;;;6.83;;
51800;SDS011;37855;53.204;6.568;2023-05-10T12:53:28;13.23;;;6.80;;
51800;SDS011;37855;53.204;6.568;2023-05-10T12:55:53;11.93;;;7.30;;
51800;SDS011;37855;53.204;6.568;2023-05-10T12:58:21;12.48;;;7.03;;
51800;SDS011;37855;53.204;6.568;2023-05-10T13:00:46;13.60;;;7.07;;
51800;SDS011;37855;53.204;6.568;2023-05-10T13:03:12;11.82;;;7.28;;
51800;SDS011;37855;53.204;6.568;2023-05-10T13:05:38;11.13;;;6.83;;
51800;SDS011;37855;53.204;6.568;2023-05-10T13:08:05;14.35;;;7.25;;
51800;SDS011;37855;53.204;6.568;2023-05-10T13:10:31;13.57;;;7.22;;
51800;SDS011;37855;53.204;6.568;2023-05-10T13:12:57;11.37;;;7.47;;
51800;SDS011;37855;53.204;6.568;2023-05-10T13:15:23;12.90;;;7.13;;
51800;SDS011;37855;53.204;6.568;2023-05-10T13:17:49;11.57;;;6.68;;
51800;SDS011;37855;53.204;6.568;2023-05-10T13:20:15;12.57;;;7.10;;
51800;SDS011;37855;53.204;6.568;2023-05-10T13:22:41;11.90;;;6.35;;
51800;SDS011;37855;53.204;6.568;2023-05-10T13:25:08;12.45;;;7.22;;
51800;SDS011;37855;53.204;6.568;2023-05-10T13:27:34;10.63;;;6.35;;
51800;SDS011;37855;53.204;6.568;2023-05-10T13:30:00;11.97;;;7.10;;
51800;SDS011;37855;53.204;6.568;2023-05-10T13:32:27;11.00;;;6.97;;
51800;SDS011;37855;53.204;6.568;2023-05-10T13:34:53;10.15;;;6.57;;
51800;SDS011;37855;53.204;6.568;2023-05-10T13:37:18;13.00;;;6.93;;
51800;SDS011;37855;53.204;6.568;2023-05-10T13:39:44;13.48;;;7.43;;
51800;SDS011;37855;53.204;6.568;2023-05-10T13:42:10;10.60;;;6.37;;
51800;SDS011;37855;53.204;6.568;2023-05-10T13:44:35;13.02;;;7.40;;
51800;SDS011;37855;53.204;6.568;2023-05-10T13:47:01;11.37;;;6.93;;
51800;SDS011;37855;53.204;6.568;2023-05-10T13:49:27;12.13;;;7.40;;
51800;SDS011;37855;53.204;6.568;2023-05-10T13:51:52;12.37;;;7.37;;
51800;SDS011;37855;53.204;6.568;2023-05-10T13:54:18;11.35;;;7.50;;
51800;SDS011;37855;53.204;6.568;2023-05-10T13:56:44;13.50;;;7.33;;
51800;SDS011;37855;53.204;6.568;2023-05-10T13:59:12;11.93;;;6.32;;
51800;SDS011;37855;53.204;6.568;2023-05-10T14:01:39;12.15;;;6.82;;
51800;SDS011;37855;53.204;6.568;2023-05-10T14:04:05;12.48;;;7.28;;
51800;SDS011;37855;53.204;6.568;2023-05-10T14:06:32;11.80;;;6.88;;
51800;SDS011;37855;53.204;6.568;2023-05-10T14:08:57;11.93;;;6.90;;
51800;SDS011;37855;53.204;6.568;2023-05-10T14:11:23;12.90;;;7.53;;
51800;SDS011;37855;53.204;6.568;2023-05-10T14:13:48;11.88;;;7.30;;
51800;SDS011;37855;53.204;6.568;2023-05-10T14:16:14;15.77;;;7.50;;
51800;SDS011;37855;53.204;6.568;2023-05-10T14:18:40;11.57;;;6.75;;
51800;SDS011;37855;53.204;6.568;2023-05-10T14:21:05;11.60;;;7.07;;
51800;SDS011;37855;53.204;6.568;2023-05-10T14:23:31;11.88;;;7.28;;
51800;SDS011;37855;53.204;6.568;2023-05-10T14:25:57;12.03;;;7.17;;
51800;SDS011;37855;53.204;6.568;2023-05-10T14:28:22;14.40;;;8.18;;
51800;SDS011;37855;53.204;6.568;2023-05-10T14:30:49;13.97;;;8.20;;
51800;SDS011;37855;53.204;6.568;2023-05-10T14:33:16;13.05;;;8.40;;
51800;SDS011;37855;53.204;6.568;2023-05-10T14:35:42;14.80;;;8.32;;
51800;SDS011;37855;53.204;6.568;2023-05-10T14:38:07;13.47;;;8.50;;
51800;SDS011;37855;53.204;6.568;2023-05-10T14:40:35;14.07;;;8.77;;
51800;SDS011;37855;53.204;6.568;2023-05-10T14:43:01;14.30;;;8.30;;
51800;SDS011;37855;53.204;6.568;2023-05-10T14:45:26;13.33;;;7.50;;
51800;SDS011;37855;53.204;6.568;2023-05-10T14:47:52;14.57;;;8.23;;
51800;SDS011;37855;53.204;6.568;2023-05-10T14:50:18;13.18;;;7.90;;
51800;SDS011;37855;53.204;6.568;2023-05-10T14:52:44;13.02;;;7.85;;
51800;SDS011;37855;53.204;6.568;2023-05-10T14:55:09;12.30;;;7.30;;
51800;SDS011;37855;53.204;6.568;2023-05-10T14:57:35;13.02;;;7.50;;
51800;SDS011;37855;53.204;6.568;2023-05-10T15:00:02;11.37;;;6.87;;
51800;SDS011;37855;53.204;6.568;2023-05-10T15:02:28;13.33;;;7.87;;
51800;SDS011;37855;53.204;6.568;2023-05-10T15:04:55;13.20;;;7.35;;
51800;SDS011;37855;53.204;6.568;2023-05-10T15:07:22;12.75;;;7.95;;
51800;SDS011;37855;53.204;6.568;2023-05-10T15:09:48;12.43;;;8.15;;
51800;SDS011;37855;53.204;6.568;2023-05-10T15:12:15;12.07;;;7.90;;
51800;SDS011;37855;53.204;6.568;2023-05-10T15:14:42;11.67;;;7.70;;
51800;SDS011;37855;53.204;6.568;2023-05-10T15:17:09;13.38;;;7.60;;